Flight Track Log - Related Links

Times and Time Zones

All times are in EDT time to prevent confusion due to time zone crossing. See the AAL1686 flight status page for this flight to view local times or setup timezone preferences in your user account.

Time Position Orientation Groundspeed Altitude Reporting Facility
EDT Latitude Longitude Course Direction KTS MPH feet Rate Location/Type
Mon 07:41:29 PM 33.9333 -118.4500 55° Northeast 201 231 1,700  Level Southern California TRACON
Mon 07:42:28 PM 33.9108 -118.5272 251° West 240 276 3,700 2,479 Climbing Los Angeles Center
Mon 07:43:00 PM 34.1152 -118.1022 51° Northeast  Level FlightAware Approximate
Mon 07:43:30 PM 33.8792 -118.6064 244° Southwest 248 285 6,700  Level Los Angeles Center
Mon 07:44:00 PM 34.1776 -117.9781 59° Northeast  Level FlightAware Approximate
Mon 07:44:32 PM 33.8203 -118.5997 175° South 263 303 8,500  Level Los Angeles Center
Mon 07:45:00 PM 34.2459 -117.8667 North  Level FlightAware Approximate
Mon 07:45:34 PM 33.8511 -118.5017 69° East 297 342 10,900  Level Los Angeles Center
Mon 07:46:00 PM 34.3040 -117.7473 55° Northeast  Level FlightAware Approximate
Mon 07:46:35 PM 33.9103 -118.4503 36° Northeast 304 350 12,500  Level Los Angeles Center
Mon 07:47:37 PM 33.9739 -118.3608 49° Northeast 360 414 13,700 1,645 Climbing Los Angeles Center
Mon 07:48:39 PM 34.0500 -118.2261 56° Northeast 400 460 15,900 2,177 Climbing Los Angeles Center
Mon 07:49:41 PM 34.1172 -118.1086 55° Northeast 420 483 18,200 2,032 Climbing Los Angeles Center
Mon 07:50:43 PM 34.1839 -117.9886 56° Northeast 429 494 20,100 1,839 Climbing Los Angeles Center
Mon 07:51:45 PM 34.2531 -117.8667 56° Northeast 438 504 22,000 1,632 Climbing Los Angeles Center
Mon 07:52:48 PM 34.3228 -117.7419 56° Northeast 445 512 23,500 1,584 Climbing Los Angeles Center
Mon 07:53:50 PM 34.3967 -117.6092 56° Northeast 454 522 25,300 1,839 Climbing Los Angeles Center
Mon 07:54:52 PM 34.4667 -117.4822 56° Northeast 457 526 27,300 1,790 Climbing Los Angeles Center
Mon 07:55:54 PM 34.5431 -117.3689 51° Northeast 439 505 29,000 1,548 Climbing Los Angeles Center
Mon 07:56:56 PM 34.6400 -117.2378 48° Northeast 437 503 30,500 1,306 Climbing Los Angeles Center
Mon 07:57:58 PM 34.7178 -117.1269 49° Northeast 436 502 31,700 726 Climbing Los Angeles Center
Mon 07:59:00 PM 34.7961 -117.0175 49° Northeast 432 497 32,000 484 Climbing Los Angeles Center
Mon 08:00:02 PM 34.8742 -116.9056 50° Northeast 435 501 32,700 484 Climbing Los Angeles Center
Mon 08:01:04 PM 34.9372 -116.8164 49° Northeast 435 501 33,000 145 Climbing Los Angeles Center
Mon 08:02:06 PM 35.0461 -116.6606 49° Northeast 435 501 33,000  Level Los Angeles Center
Mon 08:03:08 PM 35.1236 -116.5503 49° Northeast 433 498 33,000  Level Los Angeles Center
Mon 08:04:10 PM 35.2033 -116.4383 49° Northeast 435 501 33,000  Level Los Angeles Center
Mon 08:05:13 PM 35.2800 -116.3269 50° Northeast 431 496 33,000  Level Los Angeles Center
Mon 08:06:15 PM 35.3567 -116.2139 50° Northeast 432 497 33,000  Level Los Angeles Center
Mon 08:07:17 PM 35.4497 -116.0808 49° Northeast 431 496 33,000  Level Los Angeles Center
Mon 08:08:19 PM 35.5264 -115.9681 50° Northeast 431 496 33,000  Level Los Angeles Center
Mon 08:09:21 PM 35.6019 -115.8633 48° Northeast 428 493 33,000  Level Los Angeles Center
Mon 08:10:23 PM 35.6919 -115.7297 50° Northeast 422 486 33,000  Level Los Angeles Center
Mon 08:11:25 PM 35.7686 -115.6192 49° Northeast 423 487 33,000  Level Los Angeles Center
Mon 08:12:39 PM 35.8436 -115.5086 50° Northeast 421 484 33,000  Level Los Angeles Center
Mon 08:13:42 PM 35.9344 -115.3742 50° Northeast 425 489 33,000  Level Los Angeles Center
Mon 08:14:44 PM 36.0086 -115.2644 50° Northeast 420 483 33,000  Level Los Angeles Center
Mon 08:15:46 PM 36.0908 -115.1233 54° Northeast 427 491 33,000  Level Los Angeles Center
Mon 08:16:48 PM 36.1250 -115.0147 69° East 427 491 33,000  Level Los Angeles Center
Mon 08:17:50 PM 36.1750 -114.8467 70° East 434 499 33,000  Level Los Angeles Center
Mon 08:18:52 PM 36.2175 -114.7081 69° East 434 499 33,000  Level Los Angeles Center
Mon 08:19:54 PM 36.2600 -114.5700 69° East 431 496 33,000  Level Los Angeles Center
Mon 08:20:56 PM 36.3022 -114.4317 69° East 431 496 33,000  Level Los Angeles Center
Mon 08:21:58 PM 36.3519 -114.2658 70° East 428 493 33,000  Level Los Angeles Center
Mon 08:23:00 PM 36.3925 -114.1294 70° East 424 488 33,000  Level Los Angeles Center
Mon 08:24:02 PM 36.4344 -113.9917 69° East 425 489 33,000  Level Los Angeles Center
Mon 08:25:04 PM 36.4761 -113.8528 70° East 429 494 33,000  Level Los Angeles Center
Mon 08:26:06 PM 36.5175 -113.7094 70° East 433 498 33,000  Level Los Angeles Center
Mon 08:27:08 PM 36.5597 -113.5694 69° East 435 501 33,000  Level Los Angeles Center
Mon 08:28:10 PM 36.6089 -113.4003 70° East 434 499 33,000  Level Los Angeles Center
Mon 08:29:12 PM 36.6503 -113.2603 70° East 434 499 33,000  Level Los Angeles Center
Mon 08:30:14 PM 36.6908 -113.1169 71° East 438 504 33,000  Level Los Angeles Center
Mon 08:31:16 PM 36.7319 -112.9753 70° East 438 504 33,000  Level Los Angeles Center
Mon 08:32:17 PM 36.7728 -112.8314 70° East 440 506 33,000  Level Los Angeles Center
Mon 08:33:19 PM 36.8139 -112.6894 70° East 438 504 33,000  Level Los Angeles Center
Mon 08:34:21 PM 36.8619 -112.5186 71° East 438 504 33,000  Level Los Angeles Center
Mon 08:35:23 PM 36.9025 -112.3753 70° East 439 505 33,000  Level Los Angeles Center
Mon 08:36:25 PM 36.9422 -112.2322 71° East 439 505 33,000  Level Los Angeles Center
Mon 08:37:26 PM 36.9817 -112.0878 71° East 440 506 33,000  Level Los Angeles Center
Mon 08:37:48 PM 36.9978 -112.0311 70° East 441 507 33,000  Level Denver Center
Mon 08:38:50 PM 37.0381 -111.8886 70° East 439 505 33,000  Level Denver Center
Mon 08:39:52 PM 37.0769 -111.7439 71° East 440 506 33,000  Level Denver Center
Mon 08:40:53 PM 37.1172 -111.5978 71° East 444 511 33,000  Level Denver Center
Mon 08:41:55 PM 37.1642 -111.4247 71° East 441 507 33,000  Level Denver Center
Mon 08:42:57 PM 37.2033 -111.2783 71° East 444 511 33,000  Level Denver Center
Mon 08:43:59 PM 37.2436 -111.1333 71° East 442 509 33,000  Level Denver Center
Mon 08:45:01 PM 37.2822 -110.9864 72° East 444 511 33,000  Level Denver Center
Mon 08:46:02 PM 37.3217 -110.8386 71° East 447 514 33,000  Level Denver Center
Mon 08:47:04 PM 37.3608 -110.6917 71° East 445 512 33,000  Level Denver Center
Mon 08:48:06 PM 37.3997 -110.5439 72° East 448 516 33,000  Level Denver Center
Mon 08:49:08 PM 37.4450 -110.3675 72° East 444 511 33,000  Level Denver Center
Mon 08:50:10 PM 37.4831 -110.2200 72° East 444 511 33,000  Level Denver Center
Mon 08:51:23 PM 37.5214 -110.0742 72° East 444 511 33,000  Level Denver Center
Mon 08:52:26 PM 37.5708 -109.8831 72° East 448 516 33,000  Level Denver Center
Mon 08:53:27 PM 37.6075 -109.7400 72° East 449 517 33,000  Level Denver Center
Mon 08:54:29 PM 37.6494 -109.5725 72° East 448 516 33,000  Level Denver Center
Mon 08:55:31 PM 37.6858 -109.4269 72° East 451 519 33,000  Level Denver Center
Mon 08:56:33 PM 37.7281 -109.2583 72° East 452 520 33,000  Level Denver Center
Mon 08:57:47 PM 37.7636 -109.1125 73° East 453 521 33,000  Level Denver Center
Mon 08:58:49 PM 37.8094 -108.9192 73° East 448 516 33,000  Level Denver Center
Mon 08:59:51 PM 37.8292 -108.7708 80° East 447 514 33,000  Level Denver Center
Mon 09:00:53 PM 37.8506 -108.5964 81° East 449 517 33,000  Level Denver Center
Mon 09:01:55 PM 37.8694 -108.4481 81° East 447 514 33,000  Level Denver Center
Mon 09:02:56 PM 37.8903 -108.2697 82° East 455 524 33,000  Level Denver Center
Mon 09:03:58 PM 37.9089 -108.1186 81° East 455 524 33,000  Level Denver Center
Mon 09:05:00 PM 37.9275 -107.9675 81° East 454 522 33,000  Level Denver Center
Mon 09:06:02 PM 37.9483 -107.7925 81° East 451 519 33,000  Level Denver Center
Mon 09:07:04 PM 37.9661 -107.6419 81° East 449 517 33,000  Level Denver Center
Mon 09:08:06 PM 37.9856 -107.4653 82° East 453 521 33,000  Level Denver Center
Mon 09:09:07 PM 38.0031 -107.3164 81° East 447 514 33,000  Level Denver Center
Mon 09:10:09 PM 38.0217 -107.1503 82° East 446 513 33,000  Level Denver Center
Mon 09:11:11 PM 38.0386 -106.9997 82° East 451 519 33,000  Level Denver Center
Mon 09:12:13 PM 38.0569 -106.8239 82° East 453 521 33,000  Level Denver Center
Mon 09:13:15 PM 38.0750 -106.6725 81° East 453 521 33,000  Level Denver Center
Mon 09:14:16 PM 38.0933 -106.4964 82° East 453 521 33,000  Level Denver Center
Mon 09:15:18 PM 38.1067 -106.3636 83° East 447 514 33,000  Level Denver Center
Mon 09:16:20 PM 38.1264 -106.1764 82° East 446 513 33,000  Level Denver Center
Mon 09:17:22 PM 38.1422 -106.0239 82° East 449 517 33,000  Level Denver Center
Mon 09:18:24 PM 38.1608 -105.8478 82° East 450 518 33,000  Level Denver Center
Mon 09:19:26 PM 38.1742 -105.6964 84° East 451 519 33,000  Level Denver Center
Mon 09:20:28 PM 38.1900 -105.5456 82° East 450 518 33,000  Level Denver Center
Mon 09:21:29 PM 38.2069 -105.3694 83° East 450 518 33,000  Level Denver Center
Mon 09:22:31 PM 38.2217 -105.2200 83° East 444 511 33,000  Level Denver Center
Mon 09:23:33 PM 38.2378 -105.0439 83° East 449 517 33,000  Level Denver Center
Mon 09:24:35 PM 38.2525 -104.8936 83° East 448 516 33,000  Level Denver Center
Mon 09:25:49 PM 38.2683 -104.7181 83° East 446 513 33,000  Level Denver Center
Mon 09:26:52 PM 38.2853 -104.5378 83° East 453 521 33,000  Level Denver Center
Mon 09:27:54 PM 38.3014 -104.3642 83° East 445 512 33,000  Level Denver Center
Mon 09:28:55 PM 38.3222 -104.2117 80° East 452 520 33,000  Level Denver Center
Mon 09:29:57 PM 38.3447 -104.0353 81° East 451 519 33,000  Level Denver Center
Mon 09:30:59 PM 38.3633 -103.8858 81° East 445 512 33,000  Level Denver Center
Mon 09:32:01 PM 38.3858 -103.7089 81° East 450 518 33,000  Level Denver Center
Mon 09:33:03 PM 38.4036 -103.5581 81° East 450 518 33,000  Level Denver Center
Mon 09:34:05 PM 38.4236 -103.3986 81° East 447 514 33,000  Level Denver Center
Mon 09:35:07 PM 38.4411 -103.2478 82° East 449 517 33,000  Level Denver Center
Mon 09:36:09 PM 38.4631 -103.0708 81° East 454 522 33,000  Level Denver Center
Mon 09:37:11 PM 38.4806 -102.9208 81° East 449 517 33,000  Level Denver Center
Mon 09:38:13 PM 38.5006 -102.7461 82° East 447 514 33,000  Level Denver Center
Mon 09:39:15 PM 38.5175 -102.5975 82° East 443 510 33,000  Level Denver Center
Mon 09:40:16 PM 38.5375 -102.4222 82° East 447 514 33,000  Level Denver Center
Mon 09:41:18 PM 38.5536 -102.2722 82° East 445 512 33,000  Level Denver Center
Mon 09:42:20 PM 38.5731 -102.0967 82° East 446 513 33,000  Level Denver Center
Mon 09:43:22 PM 38.5894 -101.9478 82° East 443 510 33,000  Level Denver Center
Mon 09:44:24 PM 38.6083 -101.7728 82° East 444 511 33,000  Level Denver Center
Mon 09:45:26 PM 38.6244 -101.6217 82° East 447 514 33,000  Level Denver Center
Mon 09:46:28 PM 38.6406 -101.4703 82° East 448 516 33,000  Level Denver Center
Mon 09:47:29 PM 38.6564 -101.3189 82° East 448 516 33,000  Level Denver Center
Mon 09:48:32 PM 38.6742 -101.1431 83° East 446 513 33,000  Level Denver Center
Mon 09:49:34 PM 38.6919 -100.9683 83° East 443 510 33,000  Level Denver Center
Mon 09:50:36 PM 38.7064 -100.8175 83° East 444 511 33,000  Level Denver Center
Mon 09:51:38 PM 38.7247 -100.6408 82° East 447 514 33,000  Level Denver Center
Mon 09:52:52 PM 38.7389 -100.4864 83° East 454 522 33,000  Level Denver Center
Mon 09:54:06 PM 38.7581 -100.2858 83° East 447 514 33,000 263 Level Denver Center
Mon 09:55:09 PM 38.7764 -100.0833 83° East 447 514 33,600 823 Climbing Denver Center
Mon 09:56:10 PM 38.7897 -99.9336 83° East 444 511 34,700 683 Climbing Denver Center
Mon 09:57:12 PM 38.8067 -99.7622 83° East 438 504 35,000 97 Climbing Denver Center
Mon 09:59:16 PM 38.8292 -99.4842 84° East 445 512 35,000  Level Denver Center
Mon 10:00:18 PM 38.8472 -99.2833 83° East 445 512 35,000  Level Denver Center
Mon 10:00:37 PM 38.8481 -99.2550 88° East 443 510 35,000  Level Kansas City Center
Mon 10:01:38 PM 38.8606 -99.0939 84° East 449 517 35,000  Level Kansas City Center
Mon 10:02:39 PM 38.8706 -98.9378 85° East 441 507 35,000  Level Kansas City Center
Mon 10:03:41 PM 38.8828 -98.7494 85° East 440 506 35,000  Level Kansas City Center
Mon 10:04:42 PM 38.8933 -98.5953 85° East 435 501 35,000  Level Kansas City Center
Mon 10:05:43 PM 38.9042 -98.4381 85° East 439 505 35,000  Level Kansas City Center
Mon 10:06:45 PM 38.9131 -98.2806 86° East 440 506 35,000  Level Kansas City Center
Mon 10:07:46 PM 38.9236 -98.1256 85° East 437 503 35,000  Level Kansas City Center
Mon 10:08:47 PM 38.9328 -97.9667 86° East 443 510 35,000  Level Kansas City Center
Mon 10:09:48 PM 38.9428 -97.7978 86° East 440 506 35,000  Level Kansas City Center
Mon 10:10:50 PM 38.9394 -97.6467 92° East 443 510 35,000  Level Kansas City Center
Mon 10:11:51 PM 38.9350 -97.4928 92° East 442 509 35,000  Level Kansas City Center
Mon 10:12:52 PM 38.9322 -97.3339 91° East 443 510 35,000  Level Kansas City Center
Mon 10:13:54 PM 38.9292 -97.1786 91° East 437 503 35,000  Level Kansas City Center
Mon 10:14:55 PM 38.9258 -97.0203 92° East 441 507 35,000  Level Kansas City Center
Mon 10:15:56 PM 38.9214 -96.8297 92° East 443 510 35,000  Level Kansas City Center
Mon 10:16:57 PM 38.9181 -96.6697 91° East 447 514 35,000  Level Kansas City Center
Mon 10:17:59 PM 38.9147 -96.5142 92° East 441 507 35,000  Level Kansas City Center
Mon 10:19:00 PM 38.9092 -96.3617 93° East 449 517 35,000  Level Kansas City Center
Mon 10:20:01 PM 38.9025 -96.1811 93° East 455 524 35,000  Level Kansas City Center
Mon 10:21:03 PM 38.8994 -96.0289 91° East 451 519 35,000  Level Kansas City Center
Mon 10:22:04 PM 38.8944 -95.8500 92° East 450 518 35,000  Level Kansas City Center
Mon 10:23:05 PM 38.8889 -95.6939 93° East 458 527 35,000  Level Kansas City Center
Mon 10:24:06 PM 38.8850 -95.5397 92° East 456 525 35,000  Level Kansas City Center
Mon 10:25:08 PM 38.8775 -95.3608 93° East 454 522 35,000  Level Kansas City Center
Mon 10:26:09 PM 38.8717 -95.2067 93° East 455 524 35,000  Level Kansas City Center
Mon 10:27:10 PM 38.8658 -95.0272 92° East 455 524 35,000  Level Kansas City Center
Mon 10:28:12 PM 38.8592 -94.8706 93° East 460 529 35,000  Level Kansas City Center
Mon 10:29:13 PM 38.8525 -94.6900 93° East 458 527 35,000  Level Kansas City Center
Mon 10:30:14 PM 38.8486 -94.5322 92° East 463 533 35,000  Level Kansas City Center
Mon 10:31:16 PM 38.8447 -94.3769 92° East 458 527 35,000  Level Kansas City Center
Mon 10:32:17 PM 38.8386 -94.1944 92° East 459 528 35,000  Level Kansas City Center
Mon 10:33:18 PM 38.8333 -94.0347 92° East 467 537 35,000  Level Kansas City Center
Mon 10:34:19 PM 38.8272 -93.8464 92° East 473 544 35,000  Level Kansas City Center
Mon 10:35:20 PM 38.8242 -93.7031 92° East 476 548 35,000  Level Kansas City Center
Mon 10:36:22 PM 38.8156 -93.5019 93° East 473 544 35,000  Level Kansas City Center
Mon 10:37:23 PM 38.8044 -93.3358 95° East 469 540 35,000  Level Kansas City Center
Mon 10:38:24 PM 38.7936 -93.1683 95° East 469 540 35,000 -197 Level Kansas City Center
Mon 10:39:25 PM 38.7825 -93.0022 95° East 467 537 34,600 -885 Descending Kansas City Center
Mon 10:40:26 PM 38.7711 -92.8361 95° East 467 537 33,200 -1,756 Descending Kansas City Center
Mon 10:41:28 PM 38.7592 -92.6669 95° East 470 541 31,000 -2,488 Descending Kansas City Center
Mon 10:42:29 PM 38.7472 -92.4961 95° East 473 544 28,100 -2,656 Descending Kansas City Center
Mon 10:43:30 PM 38.7361 -92.3225 95° East 481 554 25,600 -2,262 Descending Kansas City Center
Mon 10:44:31 PM 38.7233 -92.1567 96° East 471 542 23,500 -2,213 Descending Kansas City Center
Mon 10:45:32 PM 38.7117 -91.9997 95° East 449 517 21,100 -2,066 Descending Kansas City Center
Mon 10:46:33 PM 38.7000 -91.8500 96° East 428 493 19,300 -1,820 Descending Kansas City Center
Mon 10:47:34 PM 38.6906 -91.7028 95° East 416 479 17,400 -1,805 Descending Kansas City Center
Mon 10:48:36 PM 38.6931 -91.5586 89° East 408 470 15,600 -1,756 Descending Kansas City Center
Mon 10:49:37 PM 38.6919 -91.4164 91° East 400 460 13,800 -1,869 Descending Kansas City Center
Mon 10:50:38 PM 38.6931 -91.2683 89° East 390 449 11,800 -1,475 Descending Kansas City Center
Mon 10:51:39 PM 38.7086 -91.1397 81° East 372 428 10,800 -934 Descending Kansas City Center
Mon 10:52:40 PM 38.7364 -91.0308 72° East 333 383 9,900 -1,180 Descending Kansas City Center
Mon 10:53:41 PM 38.7608 -90.9286 73° East 307 353 8,400 -1,574 Descending Kansas City Center
Mon 10:54:42 PM 38.7861 -90.8269 72° East 301 346 6,700 -1,659 Descending Kansas City Center
Mon 10:55:44 PM 38.8106 -90.7222 73° East 303 349 5,000 -1,645 Descending Kansas City Center

Login

Don't have an account? Register now (free) for customized features, flight alerts, and more!